Time;durP1;ratioP1;P1;durP2;ratioP2;P2;SDS_P1;SDS_P2;PMS_P1;PMS_P2;Temp;Humidity;BMP_temperature;BMP_pressure;BME280_temperature;BME280_humidity;BME280_pressure;Samples;Min_cycle;Max_cycle;Signal;HPM_P1;HPM_P2
2022/02/12 00:01:41;;;;;;;10.80;3.00;;;;;;;-0.28;100.00;100024.34;10317689;28;20121;-63
2022/02/12 00:06:44;;;;;;;10.63;2.85;;;;;;;-0.43;100.00;100026.63;10318273;28;20472;-63
2022/02/12 00:11:47;;;;;;;6.75;2.53;;;;;;;-0.50;100.00;100020.69;10315391;28;20499;-63
2022/02/12 00:16:52;;;;;;;12.77;2.80;;;;;;;-0.53;100.00;100019.94;10316076;28;20038;-62
2022/02/12 00:21:55;;;;;;;9.88;2.40;;;;;;;-0.54;100.00;100028.78;10300555;28;20422;-62
2022/02/12 00:26:58;;;;;;;10.43;2.47;;;;;;;-0.66;100.00;100044.16;10324110;28;20491;-63
2022/02/12 00:32:04;;;;;;;10.18;2.70;;;;;;;-0.69;100.00;100038.94;10323264;28;20074;-63
2022/02/12 00:37:07;;;;;;;7.97;2.45;;;;;;;-0.77;100.00;100041.00;10324892;28;20080;-63
2022/02/12 00:42:11;;;;;;;8.68;2.55;;;;;;;-0.86;100.00;100057.13;10326241;28;20042;-63
2022/02/12 00:47:16;;;;;;;10.88;2.53;;;;;;;-0.89;100.00;100059.91;10324912;28;20042;-63
2022/02/12 00:52:19;;;;;;;9.90;2.80;;;;;;;-0.93;100.00;100053.81;10308081;28;20046;-62
2022/02/12 00:57:22;;;;;;;9.80;2.38;;;;;;;-0.93;100.00;100067.94;10307907;28;20050;-63
2022/02/12 01:02:27;;;;;;;10.50;2.60;;;;;;;-0.91;100.00;100061.72;10321965;28;20042;-64
2022/02/12 01:07:31;;;;;;;8.38;2.22;;;;;;;-0.92;100.00;100060.84;10307040;28;20050;-63
2022/02/12 01:12:34;;;;;;;11.27;2.47;;;;;;;-0.94;100.00;100055.63;10322541;28;20057;-63
2022/02/12 01:17:39;;;;;;;9.50;2.20;;;;;;;-0.94;100.00;100063.56;10321490;28;20425;-63
2022/02/12 01:22:42;;;;;;;10.38;2.33;;;;;;;-0.95;100.00;100067.09;10306474;28;20046;-64
2022/02/12 01:27:46;;;;;;;8.48;2.17;;;;;;;-0.99;100.00;100062.81;10321144;28;20046;-63
2022/02/12 01:32:50;;;;;;;7.18;2.33;;;;;;;-0.99;100.00;100068.09;10310599;28;20061;-64
2022/02/12 01:37:55;;;;;;;8.90;2.30;;;;;;;-1.04;100.00;100061.22;10321578;28;20046;-63
2022/02/12 01:43:02;;;;;;;7.68;2.13;;;;;;;-1.04;100.00;100056.81;10322745;28;20078;-63
2022/02/12 01:48:07;;;;;;;9.23;2.08;;;;;;;-1.07;100.00;100050.75;10321665;28;20133;-63
2022/02/12 01:53:11;;;;;;;11.75;2.33;;;;;;;-1.09;100.00;100056.06;10319597;28;20068;-63
2022/02/12 01:58:15;;;;;;;11.15;2.30;;;;;;;-1.11;100.00;100048.19;10322626;28;20038;-63
2022/02/12 02:03:20;;;;;;;8.73;2.83;;;;;;;-1.14;100.00;100050.06;10322554;28;20068;-63
2022/02/12 02:08:27;;;;;;;9.32;2.45;;;;;;;-1.20;100.00;100051.13;10320083;28;20054;-63
2022/02/12 02:13:30;;;;;;;8.65;2.55;;;;;;;-1.22;100.00;100041.47;10304780;28;20202;-64
2022/02/12 02:18:35;;;;;;;8.55;2.42;;;;;;;-1.28;100.00;100032.84;10322546;28;20915;-64
2022/02/12 02:23:39;;;;;;;12.95;2.40;;;;;;;-1.31;100.00;100040.84;10322501;28;20053;-65
2022/02/12 02:28:43;;;;;;;8.82;2.53;;;;;;;-1.34;100.00;100027.72;10304255;28;20587;-63
2022/02/12 02:33:46;;;;;;;14.05;2.50;;;;;;;-1.42;100.00;100025.34;10340231;22;20082;-61
2022/02/12 02:38:51;;;;;;;8.68;2.45;;;;;;;-1.46;100.00;100017.50;10353809;28;20041;-61
2022/02/12 02:43:54;;;;;;;12.27;2.45;;;;;;;-1.48;100.00;100029.94;10362079;28;20060;-61
2022/02/12 02:48:57;;;;;;;7.18;2.13;;;;;;;-1.51;100.00;100015.00;10361836;28;20446;-60
2022/02/12 02:59:23;;;;;;;8.77;2.20;;;;;;;-1.52;100.00;100007.13;10359901;28;20045;-58
2022/02/12 03:04:27;;;;;;;9.00;2.60;;;;;;;-1.56;100.00;100001.94;10361129;28;20137;-61
2022/02/12 03:09:32;;;;;;;6.50;2.03;;;;;;;-1.59;100.00;99998.53;10359535;28;20038;-60
2022/02/12 03:14:34;;;;;;;7.60;2.22;;;;;;;-1.66;100.00;100000.47;10340481;28;20485;-59
2022/02/12 03:19:37;;;;;;;8.80;2.45;;;;;;;-1.66;100.00;100011.03;10360511;28;20308;-59
2022/02/12 03:24:42;;;;;;;10.02;2.50;;;;;;;-1.71;100.00;100007.69;10341356;28;20053;-61
2022/02/12 03:29:45;;;;;;;10.20;2.50;;;;;;;-1.71;100.00;100002.41;10358306;28;20049;-59
2022/02/12 03:34:49;;;;;;;8.88;2.45;;;;;;;-1.75;100.00;100008.69;10357678;28;20065;-61
2022/02/12 03:39:53;;;;;;;6.13;2.05;;;;;;;-1.79;100.00;99999.09;10341183;28;20042;-61
2022/02/12 03:44:56;;;;;;;13.57;3.00;;;;;;;-1.84;100.00;99996.59;10337324;28;20057;-60
2022/02/12 03:49:59;;;;;;;7.78;2.38;;;;;;;-1.88;100.00;99994.94;10360712;28;20505;-60
2022/02/12 03:55:04;;;;;;;11.45;2.60;;;;;;;-1.87;100.00;99997.56;10357725;28;20465;-60
2022/02/12 04:00:09;;;;;;;9.75;2.60;;;;;;;-1.87;100.00;99984.34;10358629;28;20120;-62
2022/02/12 04:05:15;;;;;;;11.57;2.70;;;;;;;-1.87;100.00;99986.97;10358216;28;20048;-61
2022/02/12 04:10:19;;;;;;;11.80;2.90;;;;;;;-1.87;100.00;99981.69;10352212;28;20401;-62
2022/02/12 04:15:25;;;;;;;10.15;2.78;;;;;;;-1.89;100.00;99988.78;10353229;28;20168;-61
2022/02/12 04:20:28;;;;;;;7.45;2.47;;;;;;;-1.93;100.00;99992.41;10351886;28;20064;-62
2022/02/12 04:25:32;;;;;;;9.93;2.75;;;;;;;-2.03;100.00;99970.72;10351913;28;20062;-62
2022/02/12 04:30:38;;;;;;;9.98;2.83;;;;;;;-2.04;100.00;99973.38;10351213;28;20494;-60
2022/02/12 04:35:41;;;;;;;9.02;2.45;;;;;;;-2.07;100.00;99984.91;10352583;28;20080;-61
2022/02/12 04:40:47;;;;;;;9.50;2.70;;;;;;;-2.12;100.00;99975.38;10336595;28;20169;-61
2022/02/12 04:45:50;;;;;;;8.40;2.53;;;;;;;-2.18;100.00;99977.28;10352882;28;20052;-61
2022/02/12 04:50:52;;;;;;;12.02;2.92;;;;;;;-2.25;100.00;99986.25;10333916;28;20054;-62
2022/02/12 04:55:57;;;;;;;13.13;2.90;;;;;;;-2.26;100.00;99976.59;10353050;28;20045;-62
2022/02/12 05:01:00;;;;;;;10.88;2.90;;;;;;;-2.31;100.00;99986.44;10354488;28;20042;-61
2022/02/12 05:06:03;;;;;;;13.13;3.42;;;;;;;-2.39;100.00;99986.66;10353154;28;20096;-62
2022/02/12 05:11:08;;;;;;;8.35;3.30;;;;;;;-2.46;100.00;99986.84;10356142;28;20042;-59
2022/02/12 05:16:13;;;;;;;15.35;3.90;;;;;;;-2.48;100.00;99992.16;10358783;28;20104;-62
2022/02/12 05:21:16;;;;;;;12.65;4.40;;;;;;;-2.53;100.00;99984.34;10336658;28;20034;-62
2022/02/12 05:26:21;;;;;;;13.57;4.60;;;;;;;-2.56;100.00;99989.72;10359152;28;20050;-61
2022/02/12 05:31:25;;;;;;;8.82;3.70;;;;;;;-2.63;100.00;99977.56;10358202;28;20038;-62
2022/02/12 05:36:28;;;;;;;12.10;4.22;;;;;;;-2.64;100.00;99973.19;10358143;28;20073;-61
2022/02/12 05:41:33;;;;;;;14.77;4.82;;;;;;;-2.68;100.00;99967.16;10357798;28;20113;-62
2022/02/12 05:46:36;;;;;;;8.02;3.80;;;;;;;-2.67;100.00;99968.03;10357380;28;20046;-61
2022/02/12 05:51:39;;;;;;;11.00;4.03;;;;;;;-2.70;100.00;99965.47;10339951;28;20076;-59
2022/02/12 05:56:43;;;;;;;12.85;4.05;;;;;;;-2.77;100.00;99974.44;10359697;28;20050;-60
2022/02/12 06:01:47;;;;;;;13.32;4.13;;;;;;;-2.80;100.00;99960.44;10358831;28;20038;-60
2022/02/12 06:06:50;;;;;;;12.48;4.07;;;;;;;-2.79;100.00;99966.56;10356749;28;20144;-58
2022/02/12 06:11:55;;;;;;;10.10;3.55;;;;;;;-2.82;100.00;99975.41;10355827;28;20052;-61
2022/02/12 06:17:00;;;;;;;9.45;3.80;;;;;;;-2.83;100.00;99962.28;10339278;28;20520;-61
2022/02/12 06:22:03;;;;;;;11.52;4.43;;;;;;;-2.88;100.00;99957.09;10339268;28;20065;-60
2022/02/12 06:27:08;;;;;;;11.00;4.22;;;;;;;-2.92;100.00;99960.72;10336222;28;20052;-59
2022/02/12 06:32:12;;;;;;;12.30;4.32;;;;;;;-2.91;100.00;99965.09;10338439;28;20510;-60
2022/02/12 06:37:15;;;;;;;11.52;4.60;;;;;;;-2.93;100.00;99974.81;10347356;28;20092;-60
2022/02/12 06:42:19;;;;;;;11.27;4.30;;;;;;;-2.96;100.00;99956.41;10353784;28;20069;-61
2022/02/12 06:47:22;;;;;;;12.05;4.35;;;;;;;-2.95;100.00;99950.25;10355107;28;20046;-60
2022/02/12 06:52:26;;;;;;;9.75;3.65;;;;;;;-2.94;100.00;99954.63;10354970;28;20484;-61
2022/02/12 06:57:30;;;;;;;10.45;3.60;;;;;;;-2.93;100.00;99961.63;10354903;28;20067;-62
2022/02/12 07:02:33;;;;;;;12.93;3.95;;;;;;;-2.92;100.00;99960.72;10354470;28;20134;-60
2022/02/12 07:07:45;;;;;;;15.38;4.03;;;;;;;-2.90;100.00;99973.88;10356170;28;20044;-59
2022/02/12 07:12:49;;;;;;;14.07;4.20;;;;;;;-2.87;100.00;99966.75;10354377;28;20046;-62
2022/02/12 07:17:53;;;;;;;12.40;4.18;;;;;;;-2.84;100.00;99977.22;10355436;28;20054;-61
2022/02/12 07:22:56;;;;;;;12.85;4.60;;;;;;;-2.81;100.00;99974.50;10333459;28;20510;-61
2022/02/12 07:28:00;;;;;;;14.63;4.55;;;;;;;-2.75;100.00;99991.97;10353939;28;20425;-61
2022/02/12 07:33:04;;;;;;;13.98;4.85;;;;;;;-2.71;100.00;99998.03;10354109;28;20164;-61
2022/02/12 07:38:08;;;;;;;14.45;4.40;;;;;;;-2.68;100.00;99995.31;10352970;28;20054;-62
2022/02/12 07:43:13;;;;;;;8.05;3.67;;;;;;;-2.64;100.00;100000.47;10354470;28;20046;-62
2022/02/12 07:48:16;;;;;;;16.25;4.22;;;;;;;-2.59;100.00;99997.72;10355298;28;20124;-61
2022/02/12 07:53:19;;;;;;;14.23;4.63;;;;;;;-2.54;100.00;99990.56;10338465;28;20172;-59
2022/02/12 07:58:24;;;;;;;11.32;3.85;;;;;;;-2.46;100.00;99989.47;10356019;28;20056;-60
2022/02/12 08:03:27;;;;;;;11.23;4.20;;;;;;;-2.41;100.00;99990.25;10350511;28;20049;-59
2022/02/12 08:08:30;;;;;;;12.75;4.30;;;;;;;-2.34;100.00;99997.06;10359402;28;20038;-60
2022/02/12 08:13:35;;;;;;;13.55;4.13;;;;;;;-2.29;100.00;100000.44;10354723;28;20046;-62
2022/02/12 08:18:38;;;;;;;11.73;4.00;;;;;;;-2.19;100.00;99986.13;10354349;28;20120;-60
2022/02/12 08:23:42;;;;;;;12.38;4.28;;;;;;;-2.07;100.00;99992.81;10353259;28;20042;-63
2022/02/12 08:28:49;;;;;;;15.73;4.18;;;;;;;-1.97;100.00;99976.72;10336878;28;20053;-63
2022/02/12 08:39:23;;;;;;;13.35;3.95;;;;;;;-1.66;100.00;99983.75;10299306;28;20303;-60
2022/02/12 08:44:28;;;;;;;16.90;3.72;;;;;;;-1.52;100.00;99986.00;10293909;28;20051;-60
2022/02/12 08:49:31;;;;;;;12.18;3.08;;;;;;;-1.43;100.00;99989.22;10309702;28;20525;-62
2022/02/12 08:54:34;;;;;;;12.98;3.40;;;;;;;-1.30;100.00;99986.22;10309950;28;20067;-62
2022/02/12 08:59:39;;;;;;;10.02;3.05;;;;;;;-1.12;100.00;99995.34;10311897;28;20599;-61
2022/02/12 09:04:43;;;;;;;8.13;2.90;;;;;;;-0.93;100.00;99977.97;10306672;28;20053;-67
2022/02/12 09:09:47;;;;;;;8.10;3.30;;;;;;;-0.83;100.00;99975.00;10304101;28;20061;-61
2022/02/12 09:14:52;;;;;;;14.82;3.72;;;;;;;-0.68;100.00;99977.16;10305500;28;20042;-62
2022/02/12 09:19:58;;;;;;;9.88;3.95;;;;;;;-0.53;100.00;99967.81;10301919;28;20046;-59
2022/02/12 09:25:01;;;;;;;10.70;3.97;;;;;;;-0.30;100.00;99973.25;10276259;28;20145;-59
2022/02/12 09:30:07;;;;;;;9.88;3.63;;;;;;;-0.16;100.00;99965.66;10302423;28;20046;-61
2022/02/12 09:35:10;;;;;;;9.48;3.78;;;;;;;0.05;100.00;99944.63;10292934;28;20460;-61
2022/02/12 09:40:14;;;;;;;11.35;3.30;;;;;;;0.15;100.00;99938.06;10301658;28;20502;-58
2022/02/12 09:45:18;;;;;;;7.65;3.00;;;;;;;0.32;100.00;99934.75;10301205;28;20070;-62
2022/02/12 09:50:23;;;;;;;9.68;3.22;;;;;;;0.48;100.00;99923.53;10298041;28;20133;-60
2022/02/12 09:55:28;;;;;;;8.23;3.40;;;;;;;0.63;100.00;99915.00;10300855;28;20116;-62
2022/02/12 10:00:32;;;;;;;5.60;2.70;;;;;;;0.74;100.00;99917.22;10299369;28;20476;-61
2022/02/12 10:05:38;;;;;;;10.25;2.65;;;;;;;0.88;100.00;99895.44;10318242;28;20042;-65
2022/02/12 10:10:41;;;;;;;4.53;2.40;;;;;;;1.05;100.00;99892.06;10319034;28;20046;-62
2022/02/12 10:15:47;;;;;;;9.38;3.50;;;;;;;1.23;100.00;99899.25;10321291;28;20051;-58
2022/02/12 10:20:56;;;;;;;9.73;2.20;;;;;;;1.39;100.00;99890.63;10316138;28;20046;-64
2022/02/12 10:26:11;;;;;;;6.43;2.42;;;;;;;1.52;100.00;99870.56;10316835;28;20346;-62
2022/02/12 10:31:18;;;;;;;6.55;2.53;;;;;;;1.73;100.00;99883.81;10317105;28;20039;-59
2022/02/12 10:36:22;;;;;;;4.85;1.85;;;;;;;1.82;100.00;99872.75;10316939;28;20437;-65
2022/02/12 10:41:27;;;;;;;7.10;2.17;;;;;;;1.92;100.00;99851.09;10295145;28;20049;-66
2022/02/12 10:46:32;;;;;;;6.82;2.13;;;;;;;1.99;100.00;99849.88;10315685;28;20070;-63
2022/02/12 10:51:44;;;;;;;4.95;1.90;;;;;;;2.13;100.00;99835.94;10316561;28;20109;-58
2022/02/12 10:56:52;;;;;;;7.03;2.53;;;;;;;2.22;100.00;99821.34;10318349;28;20042;-61
2022/02/12 11:01:57;;;;;;;5.70;1.73;;;;;;;2.29;100.00;99806.84;10301350;28;20074;-59
2022/02/12 11:07:02;;;;;;;5.00;1.67;;;;;;;2.31;100.00;99788.97;10310274;28;21113;-60
2022/02/12 11:12:07;;;;;;;5.45;2.05;;;;;;;2.46;100.00;99782.91;10316513;28;20121;-59
2022/02/12 11:17:15;;;;;;;4.75;1.70;;;;;;;2.56;100.00;99763.81;10314347;28;20463;-55
2022/02/12 11:22:20;;;;;;;5.40;1.45;;;;;;;2.64;100.00;99751.00;10318469;28;20513;-62
2022/02/12 11:27:25;;;;;;;4.28;1.48;;;;;;;2.72;100.00;99763.91;10301055;28;20498;-67
2022/02/12 11:32:29;;;;;;;4.82;1.65;;;;;;;2.82;100.00;99751.00;10316278;28;20101;-65
2022/02/12 11:37:36;;;;;;;3.35;1.20;;;;;;;2.85;100.00;99740.19;10318318;28;20299;-59
2022/02/12 11:42:40;;;;;;;2.55;1.10;;;;;;;2.95;100.00;99714.81;10314224;28;20052;-65
2022/02/12 11:48:17;;;;;;;3.55;1.17;;;;;;;3.01;100.00;99702.97;10315739;28;20073;-64
2022/02/12 11:53:39;;;;;;;6.30;1.60;;;;;;;3.18;100.00;99700.25;10316723;28;20554;-62
2022/02/12 11:59:10;;;;;;;3.50;1.20;;;;;;;3.23;100.00;99689.38;10311563;28;20038;-56
2022/02/12 12:04:18;;;;;;;4.28;1.30;;;;;;;3.29;100.00;99678.38;10295006;28;20057;-57
2022/02/12 12:09:21;;;;;;;3.35;1.08;;;;;;;3.38;100.00;99685.88;10314058;28;20086;-60
2022/02/12 12:14:34;;;;;;;3.25;1.20;;;;;;;3.39;100.00;99684.91;10315452;28;20042;-65
2022/02/12 12:19:43;;;;;;;4.97;1.38;;;;;;;3.48;100.00;99675.56;10309998;28;20053;-66
2022/02/12 12:24:51;;;;;;;3.00;1.20;;;;;;;3.49;100.00;99657.75;10306428;28;20370;-59
2022/02/12 12:35:17;;;;;;;2.53;1.10;;;;;;;3.60;100.00;99642.03;10323965;28;20058;-64
2022/02/12 12:40:28;;;;;;;3.83;1.20;;;;;;;3.66;100.00;99636.38;10305446;28;20052;-65
2022/02/12 12:45:32;;;;;;;2.22;0.95;;;;;;;3.90;100.00;99627.03;10324038;28;20050;-58
2022/02/12 12:50:38;;;;;;;2.40;0.85;;;;;;;4.06;100.00;99619.03;10319361;28;20050;-66
2022/02/12 12:55:46;;;;;;;3.17;0.98;;;;;;;4.23;100.00;99612.69;10321915;28;20513;-65
2022/02/12 13:00:49;;;;;;;2.70;0.98;;;;;;;4.40;100.00;99593.84;10323030;28;20125;-58
2022/02/12 13:06:04;;;;;;;3.35;1.70;;;;;;;4.67;100.00;99598.47;10322337;28;20554;-66
2022/02/12 13:11:09;;;;;;;4.28;2.38;;;;;;;4.92;100.00;99578.25;10320524;28;20141;-56
2022/02/12 13:16:13;;;;;;;3.33;1.40;;;;;;;5.16;100.00;99558.94;10305344;28;20054;-62
2022/02/12 13:21:18;;;;;;;3.00;1.08;;;;;;;5.29;100.00;99559.00;10322238;28;21377;-68
2022/02/12 13:26:22;;;;;;;2.60;1.00;;;;;;;5.49;100.00;99536.31;10302315;28;20054;-58
2022/02/12 13:31:26;;;;;;;2.55;0.95;;;;;;;5.65;100.00;99531.66;10321296;28;20046;-59
2022/02/12 13:36:31;;;;;;;4.25;1.10;;;;;;;5.81;100.00;99526.16;10321196;28;20084;-61
2022/02/12 13:41:39;;;;;;;3.90;1.40;;;;;;;5.98;100.00;99525.00;10318179;28;20046;-60
2022/02/12 13:46:43;;;;;;;3.10;1.40;;;;;;;6.08;100.00;99509.19;10303129;28;20101;-64
2022/02/12 13:51:55;;;;;;;3.70;2.00;;;;;;;6.10;100.00;99501.91;10321225;28;20117;-61
2022/02/12 13:56:59;;;;;;;3.90;2.08;;;;;;;6.08;100.00;99497.63;10315363;28;20456;-63
2022/02/12 14:02:03;;;;;;;5.65;3.70;;;;;;;6.12;100.00;99483.06;10319151;28;20044;-60
2022/02/12 14:07:07;;;;;;;4.47;2.83;;;;;;;6.07;100.00;99485.22;10318580;28;20045;-59
2022/02/12 14:12:11;;;;;;;11.82;8.80;;;;;;;6.16;100.00;99474.75;10319020;28;20120;-59
2022/02/12 14:17:14;;;;;;;16.45;10.68;;;;;;;6.13;100.00;99466.06;10318686;28;20573;-65
2022/02/12 14:22:18;;;;;;;9.55;2.70;;;;;;;6.00;100.00;99458.88;10301473;28;20137;-60
2022/02/12 14:27:21;;;;;;;15.30;10.60;;;;;;;5.99;100.00;99456.28;10316254;28;20050;-59
2022/02/12 14:32:25;;;;;;;10.32;6.88;;;;;;;6.04;100.00;99448.84;10315318;28;20530;-64
2022/02/12 14:37:29;;;;;;;7.40;5.38;;;;;;;6.26;100.00;99433.97;10319030;28;20165;-60
2022/02/12 14:42:32;;;;;;;9.05;5.72;;;;;;;6.40;100.00;99443.66;10350983;22;20057;-63
2022/02/12 14:47:35;;;;;;;2.85;1.40;;;;;;;6.38;100.00;99425.06;10336160;28;20572;-62
2022/02/12 14:52:40;;;;;;;2.22;1.20;;;;;;;6.34;100.00;99418.19;10342490;28;20054;-61
2022/02/12 14:57:43;;;;;;;3.35;1.05;;;;;;;6.25;100.00;99406.31;10333972;28;20122;-61
2022/02/12 15:02:46;;;;;;;25.65;16.42;;;;;;;6.23;100.00;99399.38;10331471;28;20045;-61
2022/02/12 15:07:51;;;;;;;3.83;2.80;;;;;;;6.10;100.00;99394.06;10341683;28;20058;-63
2022/02/12 15:12:54;;;;;;;2.13;1.25;;;;;;;5.89;100.00;99380.31;10330280;28;20048;-61
2022/02/12 15:17:57;;;;;;;2.97;1.90;;;;;;;5.84;100.00;99383.34;10341945;28;20048;-61
2022/02/12 15:23:02;;;;;;;1.90;0.88;;;;;;;5.60;100.00;99375.19;10327787;28;20077;-63
2022/02/12 15:28:05;;;;;;;7.28;4.93;;;;;;;5.57;100.00;99367.41;10336629;28;20077;-61
2022/02/12 15:33:09;;;;;;;1.88;1.30;;;;;;;5.46;100.00;99373.47;10331721;28;20049;-63
2022/02/12 15:38:14;;;;;;;4.60;3.45;;;;;;;5.33;100.00;99357.44;10337985;28;20093;-63
2022/02/12 15:43:17;;;;;;;2.40;1.30;;;;;;;5.21;100.00;99359.97;10321204;28;20122;-63
2022/02/12 15:48:20;;;;;;;6.22;4.93;;;;;;;5.11;100.00;99347.34;10315999;28;20525;-63
2022/02/12 15:53:27;;;;;;;2.65;1.00;;;;;;;4.98;100.00;99332.13;10322591;28;20049;-63
2022/02/12 15:58:31;;;;;;;3.45;1.65;;;;;;;4.79;100.00;99329.84;10326214;28;20061;-62
2022/02/12 16:03:37;;;;;;;2.65;2.00;;;;;;;4.68;100.00;99329.69;10328260;28;20561;-63
2022/02/12 16:08:43;;;;;;;3.70;2.03;;;;;;;4.53;100.00;99327.06;10311627;28;20038;-62
2022/02/12 16:13:47;;;;;;;2.03;1.50;;;;;;;4.37;100.00;99321.88;10332449;28;20345;-64
2022/02/12 16:18:51;;;;;;;2.00;1.27;;;;;;;4.21;100.00;99319.34;10330062;28;20053;-64
2022/02/12 16:23:57;;;;;;;2.28;1.20;;;;;;;4.06;100.00;99305.19;10320656;28;20407;-64
2022/02/12 16:29:01;;;;;;;1.48;1.17;;;;;;;3.88;100.00;99299.22;10315702;28;20117;-63
2022/02/12 16:34:06;;;;;;;3.25;1.67;;;;;;;3.75;100.00;99308.94;10320162;28;20038;-64
2022/02/12 16:39:14;;;;;;;3.05;1.90;;;;;;;3.65;100.00;99303.31;10316281;28;20106;-63
2022/02/12 16:44:18;;;;;;;4.22;2.80;;;;;;;3.52;100.00;99304.09;10316219;28;20156;-62
2022/02/12 16:49:21;;;;;;;3.60;2.20;;;;;;;3.36;100.00;99309.47;10317052;28;20073;-63
2022/02/12 16:54:27;;;;;;;3.25;2.10;;;;;;;3.02;100.00;99319.50;10316674;28;20116;-63
2022/02/12 16:59:30;;;;;;;4.22;2.80;;;;;;;2.92;100.00;99323.66;10317575;28;20039;-64
2022/02/12 17:04:35;;;;;;;3.72;2.50;;;;;;;2.77;100.00;99320.09;10318173;28;20052;-63
2022/02/12 17:09:41;;;;;;;3.97;2.20;;;;;;;2.67;100.00;99314.44;10318632;28;20520;-62
2022/02/12 17:14:45;;;;;;;3.60;2.20;;;;;;;2.56;100.00;99303.56;10318830;28;20137;-63
2022/02/12 17:19:52;;;;;;;3.00;1.80;;;;;;;2.46;100.00;99314.75;10322955;28;20057;-63
2022/02/12 17:25:02;;;;;;;2.80;1.50;;;;;;;2.36;100.00;99318.88;10334628;28;20042;-64
2022/02/12 17:30:11;;;;;;;4.10;1.88;;;;;;;2.25;100.00;99306.19;10345360;28;20054;-64
2022/02/12 17:35:16;;;;;;;1.80;1.60;;;;;;;2.11;100.00;99306.97;10326177;28;20038;-64
2022/02/12 17:40:23;;;;;;;2.85;1.90;;;;;;;1.83;100.00;99308.47;10327809;28;20089;-63
2022/02/12 17:45:29;;;;;;;3.03;2.25;;;;;;;1.63;100.00;99292.78;10337182;28;20465;-64
2022/02/12 17:50:33;;;;;;;4.50;2.53;;;;;;;1.50;100.00;99296.09;10328358;28;20108;-63
2022/02/12 17:55:43;;;;;;;3.80;2.70;;;;;;;1.43;100.00;99297.38;10329990;28;20056;-63
2022/02/12 18:00:49;;;;;;;4.53;2.40;;;;;;;1.26;100.00;99284.97;10327473;28;20049;-62
2022/02/12 18:05:54;;;;;;;3.17;1.90;;;;;;;1.21;100.00;99285.22;10335714;28;20092;-62
2022/02/12 18:10:58;;;;;;;3.10;2.20;;;;;;;1.19;100.00;99286.22;10323161;28;20371;-61
2022/02/12 18:16:01;;;;;;;4.45;2.30;;;;;;;1.09;100.00;99277.91;10321092;28;20042;-66
2022/02/12 18:21:05;;;;;;;3.25;2.20;;;;;;;1.03;100.00;99262.28;10324331;28;20050;-61
2022/02/12 18:26:09;;;;;;;2.78;2.30;;;;;;;0.98;100.00;99259.88;10331023;28;20042;-62
2022/02/12 18:31:12;;;;;;;3.72;2.30;;;;;;;0.90;100.00;99257.63;10329482;28;20121;-62
2022/02/12 18:36:21;;;;;;;3.92;2.75;;;;;;;0.83;100.00;99248.28;10337827;28;20042;-60
2022/02/12 18:41:28;;;;;;;3.50;2.58;;;;;;;0.70;100.00;99249.84;10325921;28;20054;-63
2022/02/12 18:46:32;;;;;;;3.17;2.47;;;;;;;0.71;100.00;99235.63;10336521;28;20086;-65
2022/02/12 18:51:35;;;;;;;4.75;2.53;;;;;;;0.66;100.00;99224.38;10330255;28;20061;-66
2022/02/12 18:56:40;;;;;;;3.55;2.20;;;;;;;0.65;100.00;99225.34;10325600;28;20466;-63
2022/02/12 19:01:43;;;;;;;4.28;2.33;;;;;;;0.64;100.00;99219.19;10330674;28;20054;-65
2022/02/12 19:06:46;;;;;;;3.80;2.40;;;;;;;0.67;100.00;99216.38;10323463;28;20058;-64
2022/02/12 19:11:51;;;;;;;2.65;2.00;;;;;;;0.79;100.00;99198.09;10327786;28;20070;-63
2022/02/12 19:16:54;;;;;;;2.97;2.13;;;;;;;0.87;100.00;99187.94;10338095;28;20052;-64
2022/02/12 19:21:57;;;;;;;3.03;2.08;;;;;;;0.96;100.00;99192.75;10336529;28;20125;-64
2022/02/12 19:27:02;;;;;;;3.97;2.33;;;;;;;1.04;100.00;99187.03;10323338;28;20129;-65
2022/02/12 19:32:06;;;;;;;4.45;2.20;;;;;;;1.11;100.00;99188.47;10318527;28;20053;-63
2022/02/12 19:37:09;;;;;;;2.45;2.25;;;;;;;1.17;100.00;99179.31;10319295;28;20479;-64
2022/02/12 19:42:15;;;;;;;2.92;2.22;;;;;;;1.20;100.00;99177.34;10329343;28;20109;-63
2022/02/12 19:47:18;;;;;;;3.83;2.30;;;;;;;1.26;100.00;99173.50;10322479;28;20054;-63
2022/02/12 19:52:21;;;;;;;2.58;2.17;;;;;;;1.30;100.00;99169.69;10325517;28;20124;-62
2022/02/12 19:57:25;;;;;;;3.13;2.00;;;;;;;1.31;100.00;99160.81;10320509;28;20743;-64
2022/02/12 20:02:28;;;;;;;3.53;2.15;;;;;;;1.30;100.00;99150.28;10321531;28;20491;-64
2022/02/12 20:07:33;;;;;;;2.38;2.17;;;;;;;1.30;100.00;99158.25;10321866;28;20444;-64
2022/02/12 20:12:39;;;;;;;3.45;2.17;;;;;;;1.27;100.00;99153.09;10319587;28;20125;-64
2022/02/12 20:17:42;;;;;;;2.85;2.20;;;;;;;1.25;100.00;99149.66;10318888;28;20142;-63
2022/02/12 20:22:45;;;;;;;3.00;2.35;;;;;;;1.22;100.00;99145.38;10319129;28;20516;-64
2022/02/12 20:27:50;;;;;;;3.78;2.60;;;;;;;1.14;100.00;99137.00;10318839;28;20046;-64
2022/02/12 20:32:55;;;;;;;3.72;2.40;;;;;;;1.10;100.00;99138.97;10314923;28;20141;-64
2022/02/12 20:37:59;;;;;;;2.63;2.20;;;;;;;1.07;100.00;99141.78;10315307;28;20077;-64
2022/02/12 20:43:03;;;;;;;3.17;2.30;;;;;;;1.00;100.00;99135.09;10341676;23;20126;-84
2022/02/12 20:48:07;;;;;;;2.70;2.33;;;;;;;0.94;100.00;99124.81;10340062;28;20140;-84
2022/02/12 20:53:11;;;;;;;2.78;2.30;;;;;;;0.91;100.00;99121.38;10344839;28;20046;-86
2022/02/12 20:58:15;;;;;;;3.13;2.20;;;;;;;0.87;100.00;99119.84;10354142;28;20048;-84
2022/02/12 21:03:20;;;;;;;3.78;2.40;;;;;;;0.83;100.00;99107.66;10346354;28;20053;-85
2022/02/12 21:08:24;;;;;;;3.10;2.10;;;;;;;0.82;100.00;99111.25;10342962;28;20050;-84
2022/02/12 21:13:28;;;;;;;5.25;2.40;;;;;;;0.79;100.00;99098.16;10358046;28;20070;-85
2022/02/12 21:18:34;;;;;;;3.70;2.38;;;;;;;0.79;100.00;99098.16;10359267;28;20051;-84
2022/02/12 21:23:37;;;;;;;3.67;2.22;;;;;;;0.78;100.00;99093.78;10357079;28;20031;-85
2022/02/12 21:28:41;;;;;;;5.60;2.20;;;;;;;0.77;100.00;99087.63;10369821;28;20058;-80
2022/02/12 21:33:45;;;;;;;2.75;2.10;;;;;;;0.78;100.00;99080.53;10359348;28;20050;-80
2022/02/12 21:38:48;;;;;;;2.92;2.30;;;;;;;0.77;100.00;99076.16;10359824;28;20050;-79
2022/02/12 21:43:53;;;;;;;2.40;1.95;;;;;;;0.78;100.00;99080.53;10364035;28;20065;-80
2022/02/12 21:48:56;;;;;;;3.03;2.10;;;;;;;0.79;100.00;99074.28;10360279;28;20035;-81
2022/02/12 21:53:59;;;;;;;3.17;2.10;;;;;;;0.84;100.00;99061.63;10335686;28;20057;-82
2022/02/12 21:59:04;;;;;;;3.58;2.30;;;;;;;0.91;100.00;99055.03;10320379;28;20065;-80
2022/02/12 22:04:08;;;;;;;3.58;2.35;;;;;;;0.97;100.00;99055.66;10335900;28;20046;-79
2022/02/12 22:09:16;;;;;;;3.08;2.30;;;;;;;1.03;100.00;99053.53;10347152;28;20130;-79
2022/02/12 22:14:21;;;;;;;2.75;2.05;;;;;;;1.00;100.00;99045.72;10356840;28;20057;-82
2022/02/12 22:19:24;;;;;;;2.33;1.85;;;;;;;0.99;100.00;99036.06;10355144;28;20049;-80
2022/02/12 22:24:29;;;;;;;3.70;2.10;;;;;;;0.96;100.00;99030.06;10370193;28;20026;-82
2022/02/12 22:29:34;;;;;;;3.03;2.17;;;;;;;0.93;100.00;99023.16;10322304;28;20054;-82
